sensor_id;sensor_type;location;lat;lon;timestamp;P1;durP1;ratioP1;P2;durP2;ratioP2
21192;SDS011;10754;51.106;7.164;2023-04-06T00:00:29;7.20;;;6.03;;
21192;SDS011;10754;51.106;7.164;2023-04-06T00:02:55;6.20;;;5.60;;
21192;SDS011;10754;51.106;7.164;2023-04-06T00:05:21;6.10;;;5.50;;
21192;SDS011;10754;51.106;7.164;2023-04-06T00:07:47;6.73;;;6.13;;
21192;SDS011;10754;51.106;7.164;2023-04-06T00:10:13;7.00;;;5.57;;
21192;SDS011;10754;51.106;7.164;2023-04-06T00:12:39;6.30;;;5.70;;
21192;SDS011;10754;51.106;7.164;2023-04-06T00:15:04;6.23;;;5.53;;
21192;SDS011;10754;51.106;7.164;2023-04-06T00:17:31;7.67;;;5.57;;
21192;SDS011;10754;51.106;7.164;2023-04-06T00:19:56;6.33;;;5.70;;
21192;SDS011;10754;51.106;7.164;2023-04-06T00:22:21;5.97;;;5.40;;
21192;SDS011;10754;51.106;7.164;2023-04-06T00:24:47;6.33;;;5.70;;
21192;SDS011;10754;51.106;7.164;2023-04-06T00:27:13;5.63;;;5.13;;
21192;SDS011;10754;51.106;7.164;2023-04-06T00:29:39;5.77;;;5.27;;
21192;SDS011;10754;51.106;7.164;2023-04-06T00:32:04;6.40;;;5.80;;
21192;SDS011;10754;51.106;7.164;2023-04-06T00:34:30;5.47;;;4.97;;
21192;SDS011;10754;51.106;7.164;2023-04-06T00:36:56;5.70;;;5.20;;
21192;SDS011;10754;51.106;7.164;2023-04-06T00:39:21;7.17;;;5.70;;
21192;SDS011;10754;51.106;7.164;2023-04-06T00:41:49;6.10;;;5.60;;
21192;SDS011;10754;51.106;7.164;2023-04-06T00:44:16;6.30;;;5.67;;
21192;SDS011;10754;51.106;7.164;2023-04-06T00:46:42;6.97;;;6.37;;
21192;SDS011;10754;51.106;7.164;2023-04-06T00:49:07;6.10;;;5.60;;
21192;SDS011;10754;51.106;7.164;2023-04-06T00:51:33;6.73;;;6.03;;
21192;SDS011;10754;51.106;7.164;2023-04-06T00:53:58;6.40;;;5.77;;
21192;SDS011;10754;51.106;7.164;2023-04-06T00:56:24;6.20;;;5.60;;
21192;SDS011;10754;51.106;7.164;2023-04-06T00:58:51;5.90;;;5.30;;
21192;SDS011;10754;51.106;7.164;2023-04-06T01:01:16;6.27;;;5.67;;
21192;SDS011;10754;51.106;7.164;2023-04-06T01:03:42;7.03;;;6.33;;
21192;SDS011;10754;51.106;7.164;2023-04-06T01:06:09;6.90;;;6.17;;
21192;SDS011;10754;51.106;7.164;2023-04-06T01:08:35;7.90;;;6.20;;
21192;SDS011;10754;51.106;7.164;2023-04-06T01:11:01;7.10;;;6.40;;
21192;SDS011;10754;51.106;7.164;2023-04-06T01:13:27;6.63;;;6.03;;
21192;SDS011;10754;51.106;7.164;2023-04-06T01:15:52;6.53;;;5.93;;
21192;SDS011;10754;51.106;7.164;2023-04-06T01:18:18;5.90;;;5.30;;
21192;SDS011;10754;51.106;7.164;2023-04-06T01:20:50;6.93;;;6.03;;
21192;SDS011;10754;51.106;7.164;2023-04-06T01:23:16;6.93;;;6.27;;
21192;SDS011;10754;51.106;7.164;2023-04-06T01:25:41;6.83;;;5.60;;
21192;SDS011;10754;51.106;7.164;2023-04-06T01:28:06;6.67;;;5.80;;
21192;SDS011;10754;51.106;7.164;2023-04-06T01:30:32;6.10;;;5.60;;
21192;SDS011;10754;51.106;7.164;2023-04-06T01:32:57;7.83;;;5.70;;
21192;SDS011;10754;51.106;7.164;2023-04-06T01:35:23;6.37;;;5.77;;
21192;SDS011;10754;51.106;7.164;2023-04-06T01:37:48;6.70;;;6.10;;
21192;SDS011;10754;51.106;7.164;2023-04-06T01:40:14;6.13;;;5.53;;
21192;SDS011;10754;51.106;7.164;2023-04-06T01:42:40;6.27;;;5.67;;
21192;SDS011;10754;51.106;7.164;2023-04-06T01:45:06;6.30;;;5.80;;
21192;SDS011;10754;51.106;7.164;2023-04-06T01:47:31;6.43;;;5.80;;
21192;SDS011;10754;51.106;7.164;2023-04-06T01:49:57;6.50;;;5.90;;
21192;SDS011;10754;51.106;7.164;2023-04-06T01:52:22;6.20;;;5.60;;
21192;SDS011;10754;51.106;7.164;2023-04-06T01:54:48;6.10;;;5.60;;
21192;SDS011;10754;51.106;7.164;2023-04-06T01:57:13;6.30;;;5.17;;
21192;SDS011;10754;51.106;7.164;2023-04-06T01:59:39;6.33;;;5.70;;
21192;SDS011;10754;51.106;7.164;2023-04-06T02:02:04;6.37;;;5.83;;
21192;SDS011;10754;51.106;7.164;2023-04-06T02:04:30;5.87;;;5.37;;
21192;SDS011;10754;51.106;7.164;2023-04-06T02:06:55;6.07;;;5.57;;
21192;SDS011;10754;51.106;7.164;2023-04-06T02:09:21;6.33;;;5.73;;
21192;SDS011;10754;51.106;7.164;2023-04-06T02:11:46;6.03;;;5.43;;
21192;SDS011;10754;51.106;7.164;2023-04-06T02:14:12;5.83;;;5.33;;
21192;SDS011;10754;51.106;7.164;2023-04-06T02:16:38;6.53;;;5.47;;
21192;SDS011;10754;51.106;7.164;2023-04-06T02:19:03;6.50;;;5.53;;
21192;SDS011;10754;51.106;7.164;2023-04-06T02:21:28;5.90;;;5.30;;
21192;SDS011;10754;51.106;7.164;2023-04-06T02:23:54;5.97;;;5.37;;
21192;SDS011;10754;51.106;7.164;2023-04-06T02:26:20;5.90;;;4.93;;
21192;SDS011;10754;51.106;7.164;2023-04-06T02:28:45;5.70;;;4.90;;
21192;SDS011;10754;51.106;7.164;2023-04-06T02:31:11;5.10;;;4.50;;
21192;SDS011;10754;51.106;7.164;2023-04-06T02:33:36;6.00;;;4.87;;
21192;SDS011;10754;51.106;7.164;2023-04-06T02:36:02;5.70;;;5.20;;
21192;SDS011;10754;51.106;7.164;2023-04-06T02:38:28;5.83;;;5.33;;
21192;SDS011;10754;51.106;7.164;2023-04-06T02:40:53;5.10;;;4.70;;
21192;SDS011;10754;51.106;7.164;2023-04-06T02:43:19;6.97;;;5.03;;
21192;SDS011;10754;51.106;7.164;2023-04-06T02:45:45;6.03;;;5.50;;
21192;SDS011;10754;51.106;7.164;2023-04-06T02:48:10;6.27;;;5.27;;
21192;SDS011;10754;51.106;7.164;2023-04-06T02:50:36;4.90;;;4.50;;
21192;SDS011;10754;51.106;7.164;2023-04-06T02:53:01;5.60;;;5.10;;
21192;SDS011;10754;51.106;7.164;2023-04-06T02:55:27;6.40;;;5.37;;
21192;SDS011;10754;51.106;7.164;2023-04-06T02:57:52;4.83;;;4.30;;
21192;SDS011;10754;51.106;7.164;2023-04-06T03:00:18;5.10;;;4.20;;
21192;SDS011;10754;51.106;7.164;2023-04-06T03:02:44;5.70;;;5.20;;
21192;SDS011;10754;51.106;7.164;2023-04-06T03:05:10;5.63;;;4.67;;
21192;SDS011;10754;51.106;7.164;2023-04-06T03:07:35;5.30;;;4.80;;
21192;SDS011;10754;51.106;7.164;2023-04-06T03:10:01;5.70;;;5.10;;
21192;SDS011;10754;51.106;7.164;2023-04-06T03:12:26;5.23;;;4.73;;
21192;SDS011;10754;51.106;7.164;2023-04-06T03:14:52;5.30;;;4.80;;
21192;SDS011;10754;51.106;7.164;2023-04-06T03:17:17;5.33;;;4.83;;
21192;SDS011;10754;51.106;7.164;2023-04-06T03:19:42;6.00;;;5.50;;
21192;SDS011;10754;51.106;7.164;2023-04-06T03:22:08;6.87;;;4.80;;
21192;SDS011;10754;51.106;7.164;2023-04-06T03:24:33;6.03;;;5.43;;
21192;SDS011;10754;51.106;7.164;2023-04-06T03:26:59;6.57;;;5.37;;
21192;SDS011;10754;51.106;7.164;2023-04-06T03:29:25;4.87;;;4.47;;
21192;SDS011;10754;51.106;7.164;2023-04-06T03:31:50;4.83;;;4.43;;
21192;SDS011;10754;51.106;7.164;2023-04-06T03:34:16;5.33;;;4.87;;
21192;SDS011;10754;51.106;7.164;2023-04-06T03:36:41;5.57;;;5.07;;
21192;SDS011;10754;51.106;7.164;2023-04-06T03:39:07;5.63;;;5.07;;
21192;SDS011;10754;51.106;7.164;2023-04-06T03:41:33;4.80;;;4.40;;
21192;SDS011;10754;51.106;7.164;2023-04-06T03:43:58;7.10;;;4.97;;
21192;SDS011;10754;51.106;7.164;2023-04-06T03:46:24;5.37;;;4.87;;
21192;SDS011;10754;51.106;7.164;2023-04-06T03:48:49;5.20;;;4.70;;
21192;SDS011;10754;51.106;7.164;2023-04-06T03:51:15;5.60;;;5.03;;
21192;SDS011;10754;51.106;7.164;2023-04-06T03:53:40;5.67;;;5.07;;
21192;SDS011;10754;51.106;7.164;2023-04-06T03:56:06;6.87;;;5.07;;
21192;SDS011;10754;51.106;7.164;2023-04-06T03:58:31;5.57;;;5.07;;
21192;SDS011;10754;51.106;7.164;2023-04-06T04:00:57;6.57;;;4.93;;
21192;SDS011;10754;51.106;7.164;2023-04-06T04:03:22;5.50;;;5.00;;
21192;SDS011;10754;51.106;7.164;2023-04-06T04:05:52;5.87;;;4.90;;
21192;SDS011;10754;51.106;7.164;2023-04-06T04:08:18;5.37;;;4.87;;
21192;SDS011;10754;51.106;7.164;2023-04-06T04:10:44;5.83;;;5.30;;
21192;SDS011;10754;51.106;7.164;2023-04-06T04:13:09;5.40;;;4.90;;
21192;SDS011;10754;51.106;7.164;2023-04-06T04:15:35;5.70;;;4.80;;
21192;SDS011;10754;51.106;7.164;2023-04-06T04:18:00;5.70;;;5.00;;
21192;SDS011;10754;51.106;7.164;2023-04-06T04:20:26;5.70;;;5.20;;
21192;SDS011;10754;51.106;7.164;2023-04-06T04:22:51;6.37;;;5.60;;
21192;SDS011;10754;51.106;7.164;2023-04-06T04:25:17;6.17;;;5.57;;
21192;SDS011;10754;51.106;7.164;2023-04-06T04:27:42;7.03;;;5.73;;
21192;SDS011;10754;51.106;7.164;2023-04-06T04:30:08;6.07;;;5.57;;
21192;SDS011;10754;51.106;7.164;2023-04-06T04:32:33;6.27;;;5.67;;
21192;SDS011;10754;51.106;7.164;2023-04-06T04:34:59;6.43;;;5.83;;
21192;SDS011;10754;51.106;7.164;2023-04-06T04:37:25;6.83;;;5.47;;
21192;SDS011;10754;51.106;7.164;2023-04-06T04:39:50;5.43;;;4.93;;
21192;SDS011;10754;51.106;7.164;2023-04-06T04:42:16;5.07;;;4.67;;
21192;SDS011;10754;51.106;7.164;2023-04-06T04:44:41;6.27;;;5.67;;
21192;SDS011;10754;51.106;7.164;2023-04-06T04:47:06;5.50;;;5.00;;
21192;SDS011;10754;51.106;7.164;2023-04-06T04:49:32;6.13;;;5.53;;
21192;SDS011;10754;51.106;7.164;2023-04-06T04:51:57;5.83;;;5.23;;
21192;SDS011;10754;51.106;7.164;2023-04-06T04:54:23;5.30;;;4.80;;
21192;SDS011;10754;51.106;7.164;2023-04-06T04:56:48;5.93;;;5.20;;
21192;SDS011;10754;51.106;7.164;2023-04-06T04:59:15;6.03;;;5.43;;
21192;SDS011;10754;51.106;7.164;2023-04-06T05:01:41;5.27;;;4.87;;
21192;SDS011;10754;51.106;7.164;2023-04-06T05:04:06;5.73;;;4.80;;
21192;SDS011;10754;51.106;7.164;2023-04-06T05:06:32;6.20;;;5.60;;
21192;SDS011;10754;51.106;7.164;2023-04-06T05:08:57;8.80;;;5.37;;
21192;SDS011;10754;51.106;7.164;2023-04-06T05:11:23;5.97;;;5.43;;
21192;SDS011;10754;51.106;7.164;2023-04-06T05:13:48;6.03;;;5.27;;
21192;SDS011;10754;51.106;7.164;2023-04-06T05:16:14;5.30;;;4.80;;
21192;SDS011;10754;51.106;7.164;2023-04-06T05:18:40;5.37;;;4.87;;
21192;SDS011;10754;51.106;7.164;2023-04-06T05:21:05;6.13;;;4.93;;
21192;SDS011;10754;51.106;7.164;2023-04-06T05:23:31;5.73;;;5.10;;
21192;SDS011;10754;51.106;7.164;2023-04-06T05:25:56;4.90;;;4.50;;
21192;SDS011;10754;51.106;7.164;2023-04-06T05:28:22;5.33;;;4.83;;
21192;SDS011;10754;51.106;7.164;2023-04-06T05:30:47;6.23;;;5.13;;
21192;SDS011;10754;51.106;7.164;2023-04-06T05:33:13;6.10;;;4.93;;
21192;SDS011;10754;51.106;7.164;2023-04-06T05:35:38;5.23;;;4.73;;
21192;SDS011;10754;51.106;7.164;2023-04-06T05:38:07;5.73;;;5.13;;
21192;SDS011;10754;51.106;7.164;2023-04-06T05:40:34;5.60;;;4.67;;
21192;SDS011;10754;51.106;7.164;2023-04-06T05:43:00;5.40;;;4.90;;
21192;SDS011;10754;51.106;7.164;2023-04-06T05:45:25;5.10;;;4.70;;
21192;SDS011;10754;51.106;7.164;2023-04-06T05:47:51;4.93;;;4.53;;
21192;SDS011;10754;51.106;7.164;2023-04-06T05:50:16;5.80;;;4.53;;
21192;SDS011;10754;51.106;7.164;2023-04-06T05:52:42;5.23;;;4.73;;
21192;SDS011;10754;51.106;7.164;2023-04-06T05:55:10;5.50;;;5.00;;
21192;SDS011;10754;51.106;7.164;2023-04-06T05:57:36;5.37;;;4.80;;
21192;SDS011;10754;51.106;7.164;2023-04-06T06:00:01;4.60;;;4.20;;
21192;SDS011;10754;51.106;7.164;2023-04-06T06:02:30;5.40;;;4.57;;
21192;SDS011;10754;51.106;7.164;2023-04-06T06:04:55;5.10;;;4.60;;
21192;SDS011;10754;51.106;7.164;2023-04-06T06:07:21;4.77;;;4.37;;
21192;SDS011;10754;51.106;7.164;2023-04-06T06:09:46;4.90;;;4.40;;
21192;SDS011;10754;51.106;7.164;2023-04-06T06:12:12;4.73;;;4.33;;
21192;SDS011;10754;51.106;7.164;2023-04-06T06:14:37;4.70;;;3.90;;
21192;SDS011;10754;51.106;7.164;2023-04-06T06:17:03;5.23;;;4.47;;
21192;SDS011;10754;51.106;7.164;2023-04-06T06:19:28;5.40;;;4.90;;
21192;SDS011;10754;51.106;7.164;2023-04-06T06:21:54;5.23;;;4.60;;
21192;SDS011;10754;51.106;7.164;2023-04-06T06:24:19;6.63;;;4.43;;
21192;SDS011;10754;51.106;7.164;2023-04-06T06:26:46;5.00;;;4.50;;
21192;SDS011;10754;51.106;7.164;2023-04-06T06:29:13;5.00;;;4.50;;
21192;SDS011;10754;51.106;7.164;2023-04-06T06:31:39;5.73;;;4.67;;
21192;SDS011;10754;51.106;7.164;2023-04-06T06:34:05;5.87;;;4.80;;
21192;SDS011;10754;51.106;7.164;2023-04-06T06:36:30;5.47;;;4.60;;
21192;SDS011;10754;51.106;7.164;2023-04-06T06:38:56;4.53;;;4.10;;
21192;SDS011;10754;51.106;7.164;2023-04-06T06:41:23;8.37;;;4.67;;
21192;SDS011;10754;51.106;7.164;2023-04-06T06:43:51;4.77;;;4.30;;
21192;SDS011;10754;51.106;7.164;2023-04-06T06:46:16;6.47;;;4.60;;
21192;SDS011;10754;51.106;7.164;2023-04-06T06:48:42;4.97;;;4.47;;
21192;SDS011;10754;51.106;7.164;2023-04-06T06:51:07;4.40;;;4.00;;
21192;SDS011;10754;51.106;7.164;2023-04-06T06:53:34;5.73;;;4.53;;
21192;SDS011;10754;51.106;7.164;2023-04-06T06:56:00;6.67;;;4.60;;
21192;SDS011;10754;51.106;7.164;2023-04-06T06:58:25;4.77;;;4.33;;
21192;SDS011;10754;51.106;7.164;2023-04-06T07:00:55;4.93;;;4.40;;
21192;SDS011;10754;51.106;7.164;2023-04-06T07:03:22;6.97;;;4.57;;
21192;SDS011;10754;51.106;7.164;2023-04-06T07:05:48;4.73;;;4.33;;
21192;SDS011;10754;51.106;7.164;2023-04-06T07:08:17;4.67;;;4.27;;
21192;SDS011;10754;51.106;7.164;2023-04-06T07:10:47;5.73;;;4.50;;
21192;SDS011;10754;51.106;7.164;2023-04-06T07:13:13;5.67;;;5.10;;
21192;SDS011;10754;51.106;7.164;2023-04-06T07:15:45;4.97;;;4.57;;
21192;SDS011;10754;51.106;7.164;2023-04-06T07:18:11;5.17;;;4.40;;
21192;SDS011;10754;51.106;7.164;2023-04-06T07:20:36;5.77;;;5.20;;
21192;SDS011;10754;51.106;7.164;2023-04-06T07:23:02;5.63;;;4.90;;
21192;SDS011;10754;51.106;7.164;2023-04-06T07:25:27;6.07;;;4.93;;
21192;SDS011;10754;51.106;7.164;2023-04-06T07:27:54;5.77;;;4.60;;
21192;SDS011;10754;51.106;7.164;2023-04-06T07:30:19;5.70;;;5.10;;
21192;SDS011;10754;51.106;7.164;2023-04-06T07:32:46;4.90;;;4.40;;
21192;SDS011;10754;51.106;7.164;2023-04-06T07:35:12;5.67;;;4.67;;
21192;SDS011;10754;51.106;7.164;2023-04-06T07:37:37;5.10;;;4.60;;
21192;SDS011;10754;51.106;7.164;2023-04-06T07:40:03;5.13;;;4.63;;
21192;SDS011;10754;51.106;7.164;2023-04-06T07:42:29;7.00;;;5.10;;
21192;SDS011;10754;51.106;7.164;2023-04-06T07:44:54;4.60;;;4.20;;
21192;SDS011;10754;51.106;7.164;2023-04-06T07:47:20;5.20;;;4.70;;
21192;SDS011;10754;51.106;7.164;2023-04-06T07:49:46;5.97;;;5.13;;
21192;SDS011;10754;51.106;7.164;2023-04-06T07:52:11;5.10;;;4.60;;
21192;SDS011;10754;51.106;7.164;2023-04-06T07:54:37;5.60;;;5.10;;
21192;SDS011;10754;51.106;7.164;2023-04-06T07:57:02;5.93;;;5.33;;
21192;SDS011;10754;51.106;7.164;2023-04-06T07:59:28;5.27;;;4.77;;
21192;SDS011;10754;51.106;7.164;2023-04-06T08:01:53;5.90;;;4.80;;
21192;SDS011;10754;51.106;7.164;2023-04-06T08:04:19;5.37;;;4.67;;
21192;SDS011;10754;51.106;7.164;2023-04-06T08:06:45;5.13;;;4.63;;
21192;SDS011;10754;51.106;7.164;2023-04-06T08:09:10;5.83;;;5.10;;
21192;SDS011;10754;51.106;7.164;2023-04-06T08:11:36;5.23;;;4.73;;
21192;SDS011;10754;51.106;7.164;2023-04-06T08:14:01;6.73;;;5.37;;
21192;SDS011;10754;51.106;7.164;2023-04-06T08:16:27;6.17;;;5.37;;
21192;SDS011;10754;51.106;7.164;2023-04-06T08:18:52;6.27;;;5.67;;
21192;SDS011;10754;51.106;7.164;2023-04-06T08:21:18;5.80;;;5.20;;
21192;SDS011;10754;51.106;7.164;2023-04-06T08:23:43;8.03;;;5.63;;
21192;SDS011;10754;51.106;7.164;2023-04-06T08:26:10;6.33;;;5.20;;
21192;SDS011;10754;51.106;7.164;2023-04-06T08:28:37;7.03;;;5.73;;
21192;SDS011;10754;51.106;7.164;2023-04-06T08:31:03;6.83;;;5.57;;
21192;SDS011;10754;51.106;7.164;2023-04-06T08:33:30;7.00;;;5.30;;
21192;SDS011;10754;51.106;7.164;2023-04-06T08:35:56;7.90;;;5.87;;
21192;SDS011;10754;51.106;7.164;2023-04-06T08:38:21;8.23;;;6.10;;
21192;SDS011;10754;51.106;7.164;2023-04-06T08:40:47;6.93;;;5.27;;
21192;SDS011;10754;51.106;7.164;2023-04-06T08:43:14;6.13;;;4.93;;
21192;SDS011;10754;51.106;7.164;2023-04-06T08:45:44;7.20;;;6.50;;
21192;SDS011;10754;51.106;7.164;2023-04-06T08:48:09;6.70;;;6.10;;
21192;SDS011;10754;51.106;7.164;2023-04-06T08:50:37;6.90;;;5.93;;
21192;SDS011;10754;51.106;7.164;2023-04-06T08:53:03;7.23;;;5.97;;
21192;SDS011;10754;51.106;7.164;2023-04-06T08:55:30;7.73;;;6.93;;
21192;SDS011;10754;51.106;7.164;2023-04-06T08:57:56;6.97;;;5.93;;
21192;SDS011;10754;51.106;7.164;2023-04-06T09:00:22;7.07;;;6.38;;
21192;SDS011;10754;51.106;7.164;2023-04-06T09:02:50;7.00;;;6.30;;
21192;SDS011;10754;51.106;7.164;2023-04-06T09:05:18;6.90;;;5.70;;
21192;SDS011;10754;51.106;7.164;2023-04-06T09:07:44;7.90;;;6.80;;
21192;SDS011;10754;51.106;7.164;2023-04-06T09:10:10;10.27;;;7.22;;
21192;SDS011;10754;51.106;7.164;2023-04-06T09:12:35;12.63;;;9.43;;
21192;SDS011;10754;51.106;7.164;2023-04-06T09:15:02;7.30;;;6.60;;
21192;SDS011;10754;51.106;7.164;2023-04-06T09:17:28;7.03;;;6.33;;
21192;SDS011;10754;51.106;7.164;2023-04-06T09:19:55;6.97;;;6.28;;
21192;SDS011;10754;51.106;7.164;2023-04-06T09:22:21;7.83;;;6.97;;
21192;SDS011;10754;51.106;7.164;2023-04-06T09:24:50;7.73;;;6.90;;
21192;SDS011;10754;51.106;7.164;2023-04-06T09:27:16;7.88;;;6.30;;
21192;SDS011;10754;51.106;7.164;2023-04-06T09:29:43;7.07;;;6.37;;
21192;SDS011;10754;51.106;7.164;2023-04-06T09:32:09;7.70;;;6.45;;
21192;SDS011;10754;51.106;7.164;2023-04-06T09:34:37;12.80;;;7.57;;
21192;SDS011;10754;51.106;7.164;2023-04-06T09:37:13;8.93;;;7.13;;
21192;SDS011;10754;51.106;7.164;2023-04-06T09:39:40;8.27;;;6.50;;
21192;SDS011;10754;51.106;7.164;2023-04-06T09:42:06;10.15;;;7.28;;
21192;SDS011;10754;51.106;7.164;2023-04-06T09:44:31;8.38;;;6.95;;
21192;SDS011;10754;51.106;7.164;2023-04-06T09:46:57;7.53;;;6.78;;
21192;SDS011;10754;51.106;7.164;2023-04-06T09:49:22;8.43;;;7.05;;
21192;SDS011;10754;51.106;7.164;2023-04-06T09:51:53;6.95;;;6.25;;
21192;SDS011;10754;51.106;7.164;2023-04-06T09:54:28;7.28;;;6.57;;
21192;SDS011;10754;51.106;7.164;2023-04-06T09:57:05;7.75;;;6.07;;
21192;SDS011;10754;51.106;7.164;2023-04-06T10:02:25;6.97;;;6.20;;
21192;SDS011;10754;51.106;7.164;2023-04-06T10:05:00;7.43;;;6.60;;
21192;SDS011;10754;51.106;7.164;2023-04-06T10:07:32;6.95;;;6.22;;
21192;SDS011;10754;51.106;7.164;2023-04-06T10:09:58;7.25;;;6.55;;
21192;SDS011;10754;51.106;7.164;2023-04-06T10:12:25;8.85;;;6.82;;
21192;SDS011;10754;51.106;7.164;2023-04-06T10:14:51;10.32;;;7.07;;
21192;SDS011;10754;51.106;7.164;2023-04-06T10:17:16;8.95;;;7.03;;
21192;SDS011;10754;51.106;7.164;2023-04-06T10:22:42;7.18;;;6.10;;
21192;SDS011;10754;51.106;7.164;2023-04-06T10:25:17;7.95;;;6.78;;
21192;SDS011;10754;51.106;7.164;2023-04-06T10:27:58;8.88;;;7.20;;
21192;SDS011;10754;51.106;7.164;2023-04-06T10:30:24;7.85;;;7.05;;
21192;SDS011;10754;51.106;7.164;2023-04-06T10:32:51;7.88;;;7.07;;
21192;SDS011;10754;51.106;7.164;2023-04-06T10:35:16;7.50;;;6.45;;
21192;SDS011;10754;51.106;7.164;2023-04-06T10:37:49;8.65;;;6.97;;
21192;SDS011;10754;51.106;7.164;2023-04-06T10:40:21;8.48;;;7.57;;
21192;SDS011;10754;51.106;7.164;2023-04-06T10:42:49;8.65;;;7.10;;
21192;SDS011;10754;51.106;7.164;2023-04-06T10:45:24;8.38;;;6.90;;
21192;SDS011;10754;51.106;7.164;2023-04-06T10:47:53;9.57;;;8.38;;
21192;SDS011;10754;51.106;7.164;2023-04-06T10:50:20;10.32;;;9.07;;
21192;SDS011;10754;51.106;7.164;2023-04-06T10:52:46;10.43;;;9.32;;
21192;SDS011;10754;51.106;7.164;2023-04-06T10:55:15;9.75;;;8.10;;
21192;SDS011;10754;51.106;7.164;2023-04-06T10:57:41;9.20;;;8.20;;
21192;SDS011;10754;51.106;7.164;2023-04-06T11:00:07;9.20;;;8.30;;
21192;SDS011;10754;51.106;7.164;2023-04-06T11:02:34;10.50;;;8.40;;
21192;SDS011;10754;51.106;7.164;2023-04-06T11:05:01;8.60;;;7.70;;
21192;SDS011;10754;51.106;7.164;2023-04-06T11:07:26;9.30;;;7.97;;
21192;SDS011;10754;51.106;7.164;2023-04-06T11:09:54;8.68;;;7.78;;
21192;SDS011;10754;51.106;7.164;2023-04-06T11:12:27;8.80;;;7.88;;
21192;SDS011;10754;51.106;7.164;2023-04-06T11:14:54;9.55;;;7.72;;
21192;SDS011;10754;51.106;7.164;2023-04-06T11:17:31;10.18;;;7.63;;
21192;SDS011;10754;51.106;7.164;2023-04-06T11:19:59;9.88;;;7.50;;
21192;SDS011;10754;51.106;7.164;2023-04-06T11:22:25;8.90;;;7.65;;
21192;SDS011;10754;51.106;7.164;2023-04-06T11:24:51;8.50;;;7.70;;
21192;SDS011;10754;51.106;7.164;2023-04-06T11:27:18;9.27;;;7.72;;
21192;SDS011;10754;51.106;7.164;2023-04-06T11:29:44;9.63;;;8.00;;
21192;SDS011;10754;51.106;7.164;2023-04-06T11:32:20;8.63;;;7.72;;
21192;SDS011;10754;51.106;7.164;2023-04-06T11:34:46;9.80;;;8.32;;
21192;SDS011;10754;51.106;7.164;2023-04-06T11:37:12;8.95;;;7.75;;
21192;SDS011;10754;51.106;7.164;2023-04-06T11:39:43;10.10;;;8.95;;
21192;SDS011;10754;51.106;7.164;2023-04-06T11:42:20;9.45;;;8.15;;
21192;SDS011;10754;51.106;7.164;2023-04-06T11:44:59;8.93;;;8.02;;
21192;SDS011;10754;51.106;7.164;2023-04-06T11:47:34;8.57;;;7.68;;
21192;SDS011;10754;51.106;7.164;2023-04-06T11:50:08;10.93;;;8.68;;
21192;SDS011;10754;51.106;7.164;2023-04-06T11:52:38;9.35;;;8.30;;
21192;SDS011;10754;51.106;7.164;2023-04-06T11:55:12;8.63;;;7.63;;
21192;SDS011;10754;51.106;7.164;2023-04-06T11:57:43;8.70;;;7.80;;
21192;SDS011;10754;51.106;7.164;2023-04-06T12:00:10;8.43;;;7.60;;
21192;SDS011;10754;51.106;7.164;2023-04-06T12:02:36;8.85;;;7.95;;
21192;SDS011;10754;51.106;7.164;2023-04-06T12:05:03;9.38;;;8.13;;
21192;SDS011;10754;51.106;7.164;2023-04-06T12:07:30;8.88;;;7.78;;
21192;SDS011;10754;51.106;7.164;2023-04-06T12:09:56;8.95;;;7.68;;
21192;SDS011;10754;51.106;7.164;2023-04-06T12:12:21;9.40;;;8.45;;
21192;SDS011;10754;51.106;7.164;2023-04-06T12:14:47;8.65;;;7.40;;
21192;SDS011;10754;51.106;7.164;2023-04-06T12:17:12;8.55;;;7.68;;
21192;SDS011;10754;51.106;7.164;2023-04-06T12:19:38;8.80;;;7.90;;
21192;SDS011;10754;51.106;7.164;2023-04-06T12:22:03;8.75;;;7.75;;
21192;SDS011;10754;51.106;7.164;2023-04-06T12:24:29;8.55;;;7.63;;
21192;SDS011;10754;51.106;7.164;2023-04-06T12:26:54;9.85;;;7.18;;
21192;SDS011;10754;51.106;7.164;2023-04-06T12:29:20;9.38;;;8.40;;
21192;SDS011;10754;51.106;7.164;2023-04-06T12:31:45;10.00;;;7.95;;
21192;SDS011;10754;51.106;7.164;2023-04-06T12:34:11;10.25;;;7.90;;
21192;SDS011;10754;51.106;7.164;2023-04-06T12:36:37;8.30;;;7.50;;
21192;SDS011;10754;51.106;7.164;2023-04-06T12:39:03;7.70;;;7.00;;
21192;SDS011;10754;51.106;7.164;2023-04-06T12:41:29;8.48;;;7.40;;
21192;SDS011;10754;51.106;7.164;2023-04-06T12:43:55;7.85;;;7.05;;
21192;SDS011;10754;51.106;7.164;2023-04-06T12:46:21;8.13;;;7.28;;
21192;SDS011;10754;51.106;7.164;2023-04-06T12:48:47;8.40;;;7.40;;
21192;SDS011;10754;51.106;7.164;2023-04-06T12:51:13;8.52;;;7.13;;
21192;SDS011;10754;51.106;7.164;2023-04-06T12:53:39;7.70;;;6.63;;
21192;SDS011;10754;51.106;7.164;2023-04-06T12:56:11;8.15;;;7.30;;
21192;SDS011;10754;51.106;7.164;2023-04-06T12:58:42;8.93;;;7.40;;
21192;SDS011;10754;51.106;7.164;2023-04-06T13:01:08;9.05;;;7.47;;
21192;SDS011;10754;51.106;7.164;2023-04-06T13:03:34;6.15;;;5.55;;
21192;SDS011;10754;51.106;7.164;2023-04-06T13:06:00;7.03;;;6.32;;
21192;SDS011;10754;51.106;7.164;2023-04-06T13:08:26;8.32;;;6.07;;
21192;SDS011;10754;51.106;7.164;2023-04-06T13:10:52;6.93;;;5.63;;
21192;SDS011;10754;51.106;7.164;2023-04-06T13:13:25;8.90;;;6.75;;
21192;SDS011;10754;51.106;7.164;2023-04-06T13:15:52;8.25;;;6.78;;
21192;SDS011;10754;51.106;7.164;2023-04-06T13:18:20;9.80;;;8.05;;
21192;SDS011;10754;51.106;7.164;2023-04-06T13:20:49;8.40;;;7.40;;
21192;SDS011;10754;51.106;7.164;2023-04-06T13:23:14;8.77;;;7.50;;
21192;SDS011;10754;51.106;7.164;2023-04-06T13:25:40;7.78;;;6.95;;
21192;SDS011;10754;51.106;7.164;2023-04-06T13:28:07;12.18;;;7.68;;
21192;SDS011;10754;51.106;7.164;2023-04-06T13:30:33;8.30;;;6.82;;
21192;SDS011;10754;51.106;7.164;2023-04-06T13:32:59;8.02;;;6.50;;
21192;SDS011;10754;51.106;7.164;2023-04-06T13:35:24;8.63;;;6.43;;
21192;SDS011;10754;51.106;7.164;2023-04-06T13:37:50;8.55;;;7.25;;
21192;SDS011;10754;51.106;7.164;2023-04-06T13:40:17;7.50;;;6.40;;
21192;SDS011;10754;51.106;7.164;2023-04-06T13:42:43;6.93;;;5.93;;
21192;SDS011;10754;51.106;7.164;2023-04-06T13:45:10;6.78;;;5.95;;
21192;SDS011;10754;51.106;7.164;2023-04-06T13:47:36;7.28;;;5.97;;
21192;SDS011;10754;51.106;7.164;2023-04-06T13:50:01;5.57;;;5.00;;
21192;SDS011;10754;51.106;7.164;2023-04-06T13:52:28;6.10;;;4.80;;
21192;SDS011;10754;51.106;7.164;2023-04-06T13:54:54;6.18;;;5.00;;
21192;SDS011;10754;51.106;7.164;2023-04-06T13:57:19;5.15;;;4.47;;
21192;SDS011;10754;51.106;7.164;2023-04-06T13:59:45;6.13;;;4.95;;
21192;SDS011;10754;51.106;7.164;2023-04-06T14:02:11;5.38;;;4.82;;
21192;SDS011;10754;51.106;7.164;2023-04-06T14:04:36;5.82;;;5.32;;
21192;SDS011;10754;51.106;7.164;2023-04-06T14:07:02;5.65;;;5.15;;
21192;SDS011;10754;51.106;7.164;2023-04-06T14:09:28;6.03;;;5.40;;
21192;SDS011;10754;51.106;7.164;2023-04-06T14:11:54;5.47;;;4.97;;
21192;SDS011;10754;51.106;7.164;2023-04-06T14:14:21;5.93;;;5.32;;
21192;SDS011;10754;51.106;7.164;2023-04-06T14:16:47;6.63;;;5.43;;
21192;SDS011;10754;51.106;7.164;2023-04-06T14:19:13;5.63;;;5.03;;
21192;SDS011;10754;51.106;7.164;2023-04-06T14:21:40;7.18;;;4.97;;
21192;SDS011;10754;51.106;7.164;2023-04-06T14:24:07;6.45;;;4.78;;
21192;SDS011;10754;51.106;7.164;2023-04-06T14:26:33;5.70;;;4.85;;
21192;SDS011;10754;51.106;7.164;2023-04-06T14:28:59;5.40;;;4.90;;
21192;SDS011;10754;51.106;7.164;2023-04-06T14:31:26;4.80;;;4.40;;
21192;SDS011;10754;51.106;7.164;2023-04-06T14:33:51;5.60;;;4.80;;
21192;SDS011;10754;51.106;7.164;2023-04-06T14:36:17;5.30;;;4.38;;
21192;SDS011;10754;51.106;7.164;2023-04-06T14:38:43;5.82;;;4.72;;
21192;SDS011;10754;51.106;7.164;2023-04-06T14:41:17;6.15;;;4.75;;
21192;SDS011;10754;51.106;7.164;2023-04-06T14:43:44;4.97;;;4.47;;
21192;SDS011;10754;51.106;7.164;2023-04-06T14:46:11;5.75;;;4.43;;
21192;SDS011;10754;51.106;7.164;2023-04-06T14:48:37;5.30;;;4.75;;